createdAt,value
2018-06-22T00:01:26.884Z,7.63
2018-06-22T00:03:57.139Z,13.20
2018-06-22T00:06:27.752Z,8.17
2018-06-22T00:08:57.944Z,10.43
2018-06-22T00:11:28.154Z,10.07
2018-06-22T00:13:57.900Z,11.80
2018-06-22T00:16:28.101Z,9.57
2018-06-22T00:18:57.777Z,9.53
2018-06-22T00:21:28.505Z,9.13
2018-06-22T00:23:58.664Z,9.13
2018-06-22T00:26:28.804Z,9.70
2018-06-22T00:28:59.029Z,12.90
2018-06-22T00:31:29.176Z,10.00
2018-06-22T00:34:42.866Z,10.90
2018-06-22T00:37:17.266Z,14.97
2018-06-22T00:39:54.045Z,13.17
2018-06-22T00:42:30.233Z,19.20
2018-06-22T00:45:00.694Z,11.87
2018-06-22T00:47:30.873Z,12.60
2018-06-22T00:50:15.963Z,9.83
2018-06-22T00:52:48.435Z,9.13
2018-06-22T00:55:18.781Z,9.63
2018-06-22T00:57:50.546Z,7.90
2018-06-22T01:00:21.300Z,12.30
2018-06-22T01:02:51.675Z,6.20
2018-06-22T01:05:22.209Z,10.57
2018-06-22T01:07:52.506Z,11.73
2018-06-22T01:10:22.782Z,7.67
2018-06-22T01:12:53.502Z,10.87
2018-06-22T01:15:23.786Z,16.77
2018-06-22T01:17:54.090Z,9.33
2018-06-22T01:20:24.751Z,12.13
2018-06-22T01:22:55.521Z,13.17
2018-06-22T01:25:25.798Z,11.03
2018-06-22T01:27:56.626Z,12.87
2018-06-22T01:30:26.898Z,17.20
2018-06-22T01:32:57.723Z,10.67
2018-06-22T01:35:28.235Z,12.40
2018-06-22T01:37:58.707Z,12.50
2018-06-22T01:40:29.231Z,14.23
2018-06-22T01:43:00.207Z,14.17
2018-06-22T01:45:30.097Z,11.10
2018-06-22T01:48:00.516Z,14.67
2018-06-22T01:50:31.074Z,10.77
2018-06-22T01:53:01.779Z,18.77
2018-06-22T01:55:32.164Z,15.83
2018-06-22T01:58:03.134Z,18.07
2018-06-22T02:00:33.386Z,12.33
2018-06-22T02:03:04.077Z,7.63
2018-06-22T02:08:02.358Z,11.77
2018-06-22T02:10:34.090Z,15.07
2018-06-22T02:13:05.484Z,8.27
2018-06-22T02:15:38.216Z,14.20
2018-06-22T02:18:09.488Z,12.23
2018-06-22T02:20:41.092Z,13.93
2018-06-22T02:23:13.389Z,14.37
2018-06-22T02:25:44.791Z,12.70
2018-06-22T02:28:17.235Z,18.53
2018-06-22T02:30:48.420Z,15.63
2018-06-22T02:33:19.777Z,11.17
2018-06-22T02:35:52.436Z,11.13
2018-06-22T02:38:23.601Z,9.70
2018-06-22T02:40:55.350Z,10.97
2018-06-22T02:43:27.335Z,9.40
2018-06-22T02:45:58.860Z,10.87
2018-06-22T02:48:30.753Z,12.00
2018-06-22T02:51:02.245Z,10.63
2018-06-22T02:53:33.253Z,8.30
2018-06-22T02:56:05.347Z,5.43
2018-06-22T02:58:37.387Z,4.70
2018-06-22T03:01:08.512Z,3.07
2018-06-22T03:03:40.321Z,4.30
2018-06-22T03:06:11.756Z,4.60
2018-06-22T03:08:42.999Z,3.90
2018-06-22T03:11:14.279Z,3.50
2018-06-22T03:13:45.926Z,8.27
2018-06-22T03:16:18.506Z,5.23
2018-06-22T03:18:50.661Z,6.47
2018-06-22T03:21:22.148Z,5.63
2018-06-22T03:23:54.412Z,8.00
2018-06-22T03:26:27.780Z,8.13
2018-06-22T03:28:59.309Z,4.73
2018-06-22T03:31:31.035Z,5.97
2018-06-22T03:34:02.503Z,7.23
2018-06-22T03:36:34.411Z,5.53
2018-06-22T03:39:07.455Z,7.00
2018-06-22T03:41:38.127Z,7.47
2018-06-22T03:44:09.555Z,8.03
2018-06-22T03:46:43.181Z,12.47
2018-06-22T03:49:14.758Z,13.23
2018-06-22T03:51:45.857Z,12.80
2018-06-22T03:54:17.012Z,10.20
2018-06-22T03:56:55.154Z,18.63
2018-06-22T03:59:26.305Z,14.57
2018-06-22T04:01:57.357Z,8.77
2018-06-22T04:04:29.617Z,8.43
2018-06-22T04:07:00.747Z,11.40
2018-06-22T04:09:33.047Z,11.93
2018-06-22T04:12:06.247Z,15.37
2018-06-22T04:14:38.841Z,10.93
2018-06-22T04:17:09.862Z,11.30
2018-06-22T04:19:41.682Z,10.37
2018-06-22T04:22:12.714Z,7.07
2018-06-22T04:24:44.191Z,10.20
2018-06-22T04:27:15.630Z,10.57
2018-06-22T04:29:46.821Z,10.90
2018-06-22T04:32:17.885Z,12.30
2018-06-22T04:34:49.362Z,10.67
2018-06-22T04:37:21.579Z,11.53
2018-06-22T04:39:54.079Z,8.87
2018-06-22T04:42:27.491Z,14.80
2018-06-22T04:44:59.516Z,12.27
2018-06-22T04:47:30.703Z,13.93
2018-06-22T04:50:10.219Z,12.10
2018-06-22T04:52:41.435Z,14.17
2018-06-22T04:55:13.841Z,13.33
2018-06-22T04:57:44.855Z,12.47
2018-06-22T05:00:16.178Z,11.93
2018-06-22T05:02:55.373Z,12.10
2018-06-22T05:05:27.101Z,9.20
2018-06-22T05:08:00.532Z,11.77
2018-06-22T05:10:33.563Z,8.20
2018-06-22T05:13:05.718Z,13.27
2018-06-22T05:15:37.740Z,7.03
2018-06-22T05:18:09.455Z,10.23
2018-06-22T05:20:40.519Z,11.13
2018-06-22T05:23:14.304Z,7.37
2018-06-22T05:25:45.479Z,7.63
2018-06-22T05:28:18.168Z,8.30
2018-06-22T05:30:50.928Z,6.90
2018-06-22T05:33:22.290Z,7.70
2018-06-22T05:35:54.193Z,4.03
2018-06-22T05:38:26.524Z,5.30
2018-06-22T05:40:59.240Z,5.57
2018-06-22T05:43:30.371Z,5.77
2018-06-22T05:46:02.145Z,6.53
2018-06-22T05:48:34.459Z,5.27
2018-06-22T05:51:05.725Z,2.17
2018-06-22T05:53:36.767Z,4.73
2018-06-22T05:56:08.401Z,5.93
2018-06-22T05:58:40.087Z,4.37
2018-06-22T06:01:12.791Z,6.63
2018-06-22T06:03:48.309Z,6.63
2018-06-22T06:06:21.575Z,4.57
2018-06-22T06:08:52.931Z,7.77
2018-06-22T06:11:25.154Z,7.93
2018-06-22T06:13:56.134Z,6.60
2018-06-22T06:16:28.612Z,5.90
2018-06-22T06:18:59.683Z,7.07
2018-06-22T06:21:31.281Z,4.57
2018-06-22T06:24:02.316Z,5.43
2018-06-22T06:26:37.543Z,10.50
2018-06-22T06:29:09.124Z,8.13
2018-06-22T06:31:41.254Z,6.80
2018-06-22T06:34:13.959Z,5.83
2018-06-22T06:36:45.284Z,6.43
2018-06-22T06:39:18.958Z,7.83
2018-06-22T06:41:50.255Z,3.53
2018-06-22T06:44:23.000Z,6.03
2018-06-22T06:46:56.896Z,8.17
2018-06-22T06:49:30.077Z,5.33
2018-06-22T06:52:01.655Z,9.23
2018-06-22T06:54:33.532Z,5.53
2018-06-22T06:57:07.175Z,8.93
2018-06-22T06:59:38.146Z,7.40
2018-06-22T07:02:19.695Z,8.27
2018-06-22T07:04:51.470Z,5.70
2018-06-22T07:07:23.584Z,4.73
2018-06-22T07:09:55.161Z,5.30
2018-06-22T07:12:27.505Z,10.40
2018-06-22T07:14:58.574Z,5.70
2018-06-22T07:17:30.755Z,5.57
2018-06-22T07:20:02.796Z,9.77
2018-06-22T07:22:33.937Z,6.50
2018-06-22T07:25:16.297Z,8.10
2018-06-22T07:27:49.110Z,8.53
2018-06-22T07:30:21.266Z,8.60
2018-06-22T07:32:53.851Z,9.40
2018-06-22T07:35:26.056Z,10.13
2018-06-22T07:37:57.498Z,12.10
2018-06-22T07:40:29.160Z,9.00
2018-06-22T07:43:00.596Z,7.20
2018-06-22T07:45:31.758Z,10.30
2018-06-22T07:48:02.972Z,8.53
2018-06-22T07:50:35.059Z,7.43
2018-06-22T07:53:06.529Z,12.20
2018-06-22T07:55:37.698Z,9.67
2018-06-22T07:58:21.600Z,9.57
2018-06-22T08:00:53.145Z,10.00
2018-06-22T08:03:25.351Z,13.23
2018-06-22T08:05:57.950Z,13.20
2018-06-22T08:08:30.232Z,10.63
2018-06-22T08:11:03.104Z,16.63
2018-06-22T08:13:35.573Z,8.97
2018-06-22T08:16:07.857Z,13.10
2018-06-22T08:18:40.056Z,9.40
2018-06-22T08:21:14.340Z,14.27
2018-06-22T08:23:46.645Z,13.17
2018-06-22T08:26:18.801Z,11.60
2018-06-22T08:28:50.154Z,11.87
2018-06-22T08:31:21.232Z,10.57
2018-06-22T08:33:52.987Z,8.97
2018-06-22T08:36:24.371Z,9.80
2018-06-22T08:38:57.055Z,11.00
2018-06-22T08:41:33.548Z,17.67
2018-06-22T08:44:05.585Z,12.50
2018-06-22T08:46:38.073Z,11.37
2018-06-22T08:49:11.557Z,11.50
2018-06-22T08:51:42.865Z,10.30
2018-06-22T08:54:15.260Z,10.90
2018-06-22T08:56:52.533Z,12.10
2018-06-22T08:59:23.880Z,14.77
2018-06-22T09:01:55.596Z,8.27
2018-06-22T09:04:30.017Z,9.50
2018-06-22T09:07:03.843Z,11.90
2018-06-22T09:09:35.495Z,9.37
2018-06-22T09:12:08.063Z,9.73
2018-06-22T09:14:54.139Z,11.70
2018-06-22T09:17:25.159Z,8.47
2018-06-22T09:19:56.596Z,8.07
2018-06-22T09:22:28.229Z,11.90
2018-06-22T09:25:00.352Z,11.90
2018-06-22T09:27:31.624Z,7.87
2018-06-22T09:30:03.191Z,11.37
2018-06-22T09:32:34.422Z,9.57
2018-06-22T09:35:09.392Z,6.47
2018-06-22T09:37:40.547Z,10.43
2018-06-22T09:40:13.732Z,13.23
2018-06-22T09:42:46.086Z,7.17
2018-06-22T09:45:17.686Z,5.93
2018-06-22T09:47:50.053Z,9.63
2018-06-22T09:50:22.440Z,9.03
2018-06-22T09:52:54.476Z,6.97
2018-06-22T09:55:25.714Z,8.83
2018-06-22T09:57:57.516Z,11.70
2018-06-22T10:00:29.135Z,10.53
2018-06-22T10:03:00.313Z,7.10
2018-06-22T10:05:32.395Z,12.33
2018-06-22T10:08:05.417Z,12.03
2018-06-22T10:10:37.351Z,9.80
2018-06-22T10:13:09.514Z,11.80
2018-06-22T10:15:45.428Z,6.90
2018-06-22T10:18:16.826Z,10.53
2018-06-22T10:20:48.246Z,6.83
2018-06-22T10:23:19.615Z,10.03
2018-06-22T10:25:52.193Z,9.57
2018-06-22T10:28:24.180Z,6.03
2018-06-22T10:30:56.126Z,12.40
2018-06-22T10:33:29.044Z,10.67
2018-06-22T10:36:01.957Z,11.83
2018-06-22T10:38:34.924Z,8.70
2018-06-22T10:41:07.529Z,10.07
2018-06-22T10:43:39.515Z,11.83
2018-06-22T10:46:11.346Z,8.20
2018-06-22T10:48:44.795Z,10.07
2018-06-22T10:51:16.683Z,11.40
2018-06-22T10:53:48.073Z,11.07
2018-06-22T10:56:22.129Z,12.67
2018-06-22T10:58:55.455Z,11.10
2018-06-22T11:01:34.255Z,9.33
2018-06-22T11:04:06.536Z,10.77
2018-06-22T11:06:42.705Z,7.90
2018-06-22T11:09:16.742Z,11.23
2018-06-22T11:11:51.909Z,9.27
2018-06-22T11:14:26.095Z,6.80
2018-06-22T11:16:59.801Z,11.27
2018-06-22T11:19:32.752Z,9.53
2018-06-22T11:22:05.363Z,11.37
2018-06-22T11:24:41.462Z,8.80
2018-06-22T11:27:13.087Z,10.63
2018-06-22T11:29:45.438Z,15.53
2018-06-22T11:32:18.240Z,11.47
2018-06-22T11:34:51.149Z,11.57
2018-06-22T11:37:22.922Z,12.80
2018-06-22T11:39:59.118Z,15.03
2018-06-22T11:42:32.783Z,9.40
2018-06-22T11:45:05.399Z,10.73
2018-06-22T11:47:37.604Z,9.07
2018-06-22T11:50:11.365Z,8.03
2018-06-22T11:52:44.224Z,12.33
2018-06-22T11:55:16.937Z,12.00
2018-06-22T11:57:54.372Z,13.83
2018-06-22T12:00:30.836Z,11.80
2018-06-22T12:03:04.077Z,11.67
2018-06-22T12:05:38.090Z,15.53
2018-06-22T12:08:13.474Z,11.90
2018-06-22T12:10:47.882Z,9.87
2018-06-22T12:13:28.752Z,11.43
2018-06-22T12:16:04.070Z,12.27
2018-06-22T12:18:37.190Z,10.40
2018-06-22T12:21:14.940Z,12.87
2018-06-22T12:23:49.925Z,10.07
2018-06-22T12:26:23.420Z,12.90
2018-06-22T12:28:55.978Z,12.17
2018-06-22T12:31:29.843Z,13.13
2018-06-22T12:34:02.865Z,10.07
2018-06-22T12:36:42.396Z,9.37
2018-06-22T12:39:17.739Z,8.43
2018-06-22T12:41:54.559Z,9.50
2018-06-22T12:44:31.964Z,11.77
2018-06-22T12:47:08.233Z,12.17
2018-06-22T12:49:41.739Z,16.50
2018-06-22T12:52:21.615Z,9.87
2018-06-22T12:54:54.335Z,10.80
2018-06-22T12:57:27.932Z,9.37
2018-06-22T13:00:02.000Z,11.87
2018-06-22T13:02:35.469Z,10.23
2018-06-22T13:05:08.623Z,9.30
2018-06-22T13:07:41.679Z,6.37
2018-06-22T13:10:14.485Z,8.27
2018-06-22T13:12:47.269Z,7.10
2018-06-22T13:15:21.071Z,8.90
2018-06-22T13:17:56.631Z,6.47
2018-06-22T13:20:31.457Z,8.27
2018-06-22T13:23:05.704Z,8.67
2018-06-22T13:25:40.958Z,9.53
2018-06-22T13:28:13.835Z,10.40
2018-06-22T13:30:50.239Z,9.43
2018-06-22T13:33:22.050Z,12.30
2018-06-22T13:35:56.622Z,13.40
2018-06-22T13:38:29.654Z,9.73
2018-06-22T13:41:03.708Z,12.27
2018-06-22T13:43:36.817Z,11.67
2018-06-22T13:46:12.774Z,17.63
2018-06-22T13:48:46.243Z,12.43
2018-06-22T13:51:20.813Z,12.37
2018-06-22T13:53:53.597Z,12.60
2018-06-22T13:56:27.468Z,8.60
2018-06-22T13:58:59.817Z,12.10
2018-06-22T14:01:33.174Z,8.17
2018-06-22T14:04:10.197Z,9.40
2018-06-22T14:06:49.030Z,9.20
2018-06-22T14:09:22.641Z,11.87
2018-06-22T14:11:55.717Z,11.27
2018-06-22T14:14:28.331Z,9.60
2018-06-22T14:17:01.352Z,13.50
2018-06-22T14:19:34.035Z,8.47
2018-06-22T14:22:07.903Z,7.80
2018-06-22T14:24:43.005Z,9.17
2018-06-22T14:27:17.863Z,11.27
2018-06-22T14:29:51.327Z,8.80
2018-06-22T14:32:25.152Z,7.47
2018-06-22T14:34:58.774Z,9.07
2018-06-22T14:37:33.264Z,6.97
2018-06-22T14:40:08.536Z,8.33
2018-06-22T14:42:41.479Z,7.87
2018-06-22T14:45:17.135Z,10.30
2018-06-22T14:47:52.705Z,10.37
2018-06-22T14:50:27.815Z,13.67
2018-06-22T14:53:01.560Z,8.43
2018-06-22T14:55:40.248Z,10.70
2018-06-22T14:58:19.355Z,10.13
2018-06-22T15:00:56.817Z,8.40
2018-06-22T15:03:35.530Z,13.40
2018-06-22T15:06:16.056Z,10.00
2018-06-22T15:08:48.794Z,15.23
2018-06-22T15:11:23.180Z,9.80
2018-06-22T15:14:00.086Z,14.33
2018-06-22T15:16:34.856Z,16.07
2018-06-22T15:19:10.530Z,15.63
2018-06-22T15:21:45.858Z,10.77
2018-06-22T15:24:20.303Z,15.00
2018-06-22T15:27:07.665Z,13.70
2018-06-22T15:29:44.349Z,12.07
2018-06-22T15:32:19.614Z,8.33
2018-06-22T15:34:57.706Z,9.60
2018-06-22T15:37:34.429Z,6.60
2018-06-22T15:40:12.592Z,10.07
2018-06-22T15:42:54.250Z,11.43
2018-06-22T15:45:40.651Z,9.23
2018-06-22T15:48:24.328Z,8.30
2018-06-22T15:51:11.329Z,11.50
2018-06-22T15:53:48.665Z,13.80
2018-06-22T15:56:25.541Z,16.47
2018-06-22T15:58:58.778Z,12.40
2018-06-22T16:01:34.476Z,15.73
2018-06-22T16:04:15.788Z,14.53
2018-06-22T16:06:54.687Z,17.07
2018-06-22T16:09:35.078Z,11.07
2018-06-22T16:12:13.557Z,11.40
2018-06-22T16:14:51.001Z,13.03
2018-06-22T16:17:29.277Z,13.00
2018-06-22T16:20:09.755Z,17.00
2018-06-22T16:22:49.895Z,15.63
2018-06-22T16:25:27.738Z,13.47
2018-06-22T16:28:04.015Z,18.33
2018-06-22T16:30:38.254Z,14.43
2018-06-22T16:33:13.207Z,16.30
2018-06-22T16:35:51.273Z,16.83
2018-06-22T16:38:27.347Z,15.07
2018-06-22T16:41:01.259Z,21.30
2018-06-22T16:43:35.187Z,18.57
2018-06-22T16:46:07.867Z,17.33
2018-06-22T16:48:42.596Z,19.23
2018-06-22T16:51:18.704Z,16.80
2018-06-22T16:53:55.436Z,23.97
2018-06-22T16:56:31.026Z,17.13
2018-06-22T16:59:08.861Z,13.83
2018-06-22T17:01:44.395Z,12.93
2018-06-22T17:04:20.451Z,12.93
2018-06-22T17:06:59.154Z,14.63
2018-06-22T17:09:37.808Z,14.57
2018-06-22T17:12:15.454Z,14.03
2018-06-22T17:14:57.953Z,16.23
2018-06-22T17:17:38.683Z,16.53
2018-06-22T17:20:18.259Z,14.07
2018-06-22T17:22:53.357Z,16.13
2018-06-22T17:25:26.883Z,17.40
2018-06-22T17:28:02.081Z,16.37
2018-06-22T17:30:37.842Z,15.63
2018-06-22T17:33:10.212Z,20.87
2018-06-22T17:35:44.066Z,15.80
2018-06-22T17:38:16.631Z,15.27
2018-06-22T17:40:50.451Z,15.37
2018-06-22T17:43:23.426Z,15.10
2018-06-22T17:45:59.831Z,17.80
2018-06-22T17:48:35.793Z,18.10
2018-06-22T17:51:09.727Z,15.80
2018-06-22T17:53:43.017Z,21.40
2018-06-22T17:56:20.739Z,14.50
2018-06-22T17:58:58.730Z,14.47
2018-06-22T18:01:48.860Z,22.83
2018-06-22T18:04:31.542Z,22.27
2018-06-22T18:07:13.338Z,16.10
2018-06-22T18:09:53.552Z,17.07
2018-06-22T18:12:33.742Z,14.63
2018-06-22T18:15:16.186Z,16.83
2018-06-22T18:17:52.091Z,15.73
2018-06-22T18:20:29.803Z,12.03
2018-06-22T18:23:04.015Z,16.83
2018-06-22T18:25:38.281Z,14.40
2018-06-22T18:28:12.673Z,13.37
2018-06-22T18:30:46.102Z,11.73
2018-06-22T18:33:20.991Z,14.03
2018-06-22T18:35:59.021Z,22.90
2018-06-22T18:38:34.490Z,13.77
2018-06-22T18:41:09.896Z,15.83
2018-06-22T18:43:50.314Z,16.83
2018-06-22T18:46:24.806Z,19.97
2018-06-22T18:49:06.790Z,19.50
2018-06-22T18:51:45.452Z,18.93
2018-06-22T18:54:30.146Z,18.63
2018-06-22T19:02:07.924Z,18.87
2018-06-22T19:04:46.661Z,20.27
2018-06-22T19:07:26.327Z,16.80
2018-06-22T19:10:12.900Z,17.03
2018-06-22T19:12:49.664Z,17.20
2018-06-22T19:15:28.248Z,14.33
2018-06-22T19:18:09.838Z,14.30
2018-06-22T19:20:51.327Z,17.87
2018-06-22T19:23:35.699Z,19.43
2018-06-22T19:26:19.627Z,15.77
2018-06-22T19:28:57.765Z,16.63
2018-06-22T19:31:41.026Z,17.37
2018-06-22T19:35:28.023Z,16.23
2018-06-22T19:38:13.224Z,14.70
2018-06-22T19:41:11.400Z,11.97
2018-06-22T19:43:56.211Z,15.00
2018-06-22T19:46:47.822Z,18.43
2018-06-22T19:49:35.614Z,19.67
2018-06-22T19:52:20.618Z,16.67
2018-06-22T19:55:14.139Z,15.87
2018-06-22T19:57:54.817Z,16.93
2018-06-22T20:00:31.235Z,21.57
2018-06-22T20:03:05.838Z,18.70
2018-06-22T20:05:46.215Z,21.00
2018-06-22T20:08:24.727Z,16.23
2018-06-22T20:11:09.227Z,18.90
2018-06-22T20:13:49.798Z,21.20
2018-06-22T20:16:30.630Z,16.00
2018-06-22T20:19:05.912Z,19.73
2018-06-22T20:21:41.898Z,21.87
2018-06-22T20:24:28.030Z,21.67
2018-06-22T20:27:03.546Z,25.57
2018-06-22T20:29:47.510Z,23.17
2018-06-22T20:32:26.121Z,14.67
2018-06-22T20:35:06.568Z,21.40
2018-06-22T20:37:53.204Z,22.33
2018-06-22T20:40:31.598Z,26.33
2018-06-22T20:43:16.903Z,25.20
2018-06-22T20:45:52.764Z,27.70
2018-06-22T20:48:31.488Z,26.63
2018-06-22T20:51:08.900Z,21.13
2018-06-22T20:53:43.067Z,29.33
2018-06-22T20:56:20.421Z,27.43
2018-06-22T20:58:53.508Z,28.37
2018-06-22T21:01:29.692Z,29.87
2018-06-22T21:04:01.990Z,31.07
2018-06-22T21:06:38.160Z,29.33
2018-06-22T21:09:11.927Z,31.17
2018-06-22T21:11:45.515Z,27.30
2018-06-22T21:14:20.333Z,27.20
2018-06-22T21:16:55.675Z,30.67
2018-06-22T21:19:39.491Z,30.07
2018-06-22T21:22:14.618Z,25.83
2018-06-22T21:24:50.856Z,26.63
2018-06-22T21:27:29.513Z,32.60
2018-06-22T21:30:08.395Z,33.60
2018-06-22T21:32:47.567Z,34.30
2018-06-22T21:35:24.916Z,35.57
2018-06-22T21:38:06.410Z,28.77
2018-06-22T21:40:41.165Z,33.53
2018-06-22T21:43:13.830Z,34.00
2018-06-22T21:45:46.962Z,29.27
2018-06-22T21:48:18.899Z,24.33
2018-06-22T21:50:51.805Z,28.53
2018-06-22T21:53:24.236Z,34.43
2018-06-22T21:55:55.939Z,33.00
2018-06-22T21:58:28.795Z,39.83
2018-06-22T22:01:00.729Z,24.77
2018-06-22T22:03:32.850Z,32.90
2018-06-22T22:06:05.532Z,27.00
2018-06-22T22:08:37.436Z,33.37
2018-06-22T22:11:10.845Z,25.60
2018-06-22T22:13:44.394Z,27.43
2018-06-22T22:16:17.280Z,31.10
2018-06-22T22:18:51.819Z,34.17
2018-06-22T22:21:25.965Z,27.77
2018-06-22T22:23:58.263Z,23.67
2018-06-22T22:26:29.920Z,31.93
2018-06-22T22:29:02.674Z,28.43
2018-06-22T22:31:34.937Z,33.93
2018-06-22T22:34:07.749Z,26.03
2018-06-22T22:36:40.884Z,25.53
2018-06-22T22:39:14.172Z,32.27
2018-06-22T22:41:47.482Z,25.00
2018-06-22T22:44:20.069Z,26.70
2018-06-22T22:46:51.315Z,29.67
2018-06-22T22:49:24.446Z,25.47
2018-06-22T22:51:58.705Z,27.33
2018-06-22T22:54:31.226Z,37.90
2018-06-22T22:57:03.773Z,33.73
2018-06-22T22:59:37.866Z,27.73
2018-06-22T23:02:10.942Z,30.77
2018-06-22T23:04:43.336Z,27.00
2018-06-22T23:07:15.506Z,31.57
2018-06-22T23:09:48.526Z,24.90
2018-06-22T23:12:22.885Z,31.37
2018-06-22T23:14:55.333Z,34.00
2018-06-22T23:17:30.312Z,20.27
2018-06-22T23:20:02.923Z,28.50
2018-06-22T23:22:47.216Z,36.27
2018-06-22T23:25:21.928Z,28.67
2018-06-22T23:27:53.917Z,26.73
2018-06-22T23:30:30.035Z,29.57
2018-06-22T23:33:03.695Z,34.90
2018-06-22T23:35:36.506Z,40.40
2018-06-22T23:38:10.302Z,34.40
2018-06-22T23:40:42.652Z,22.37
2018-06-22T23:43:18.954Z,27.73
2018-06-22T23:45:51.799Z,32.87
2018-06-22T23:48:23.354Z,28.23
2018-06-22T23:50:54.982Z,28.10
2018-06-22T23:53:25.700Z,28.87
2018-06-22T23:55:58.706Z,32.07
2018-06-22T23:58:30.878Z,23.60
